Aviation Digital Data Service (ADDS)

Output produced by TAFs form (2250 UTC 11 December 2017)
found at http://www.aviationweather.gov/adds/tafs/
 
KHKY 112153Z VRB05KT 10SM CLR 10/00 A2996 RMK AO2 SLP138 T01000000
KHKY 111737Z 1118/1218 21007KT P6SM SKC 
     FM120500 23005KT P6SM SCT250 
     FM121400 27009KT P6SM SCT040 SCT250 
     FM121600 28011G20KT P6SM BKN250